ZBAA/PEK METAR and TAF weather

Enter ICAO airport designator
Station Type Date Time Source
ZBAA METAR 2019/05/21 20:30 UTC NOAA

ZBAA 212030Z VRB01MPS CAVOK 11/08 Q1003 NOSIG


Station Type Date Time Source
ZBAA Decoded METAR 2019/05/21 20:30 UTC NOAA

Beijing, China (ZBAA) 39-56N 116-17E 55M
May 21, 2019 - 04:30 PM EDT / 2019.05.21 2030 UTC
Wind: Variable at 2 MPH (2 KT):0
Visibility: greater than 7 mile(s):0
Temperature: 51 F (11 C)
Dew Point: 46 F (8 C)
Relative Humidity: 81%
Pressure (altimeter): 29.62 in. Hg (1003 hPa)
ob: ZBAA 212030Z VRB01MPS CAVOK 11/08 Q1003 NOSIG
cycle: 20

Station Type Date Time Source
ZBAA TAF 2019/05/21 18:03 UTC NOAA

TAF TAF ZBAA 211520Z 2118/2218 18004MPS CAVOK TX35/2207Z TN13/2121Z

Example: see airport list